createdAt,value
2018-03-04T00:00:53.780Z,10.33
2018-03-04T00:01:54.002Z,10.52
2018-03-04T00:02:54.233Z,10.52
2018-03-04T00:03:54.465Z,10.33
2018-03-04T00:04:54.698Z,10.42
2018-03-04T00:05:54.924Z,10.42
2018-03-04T00:06:55.154Z,10.42
2018-03-04T00:07:55.384Z,10.52
2018-03-04T00:08:55.609Z,10.33
2018-03-04T00:09:55.842Z,10.42
2018-03-04T00:10:56.077Z,10.42
2018-03-04T00:11:56.308Z,10.42
2018-03-04T00:12:56.537Z,10.52
2018-03-04T00:13:56.765Z,10.42
2018-03-04T00:14:56.999Z,10.52
2018-03-04T00:15:57.227Z,10.52
2018-03-04T00:16:57.458Z,10.52
2018-03-04T00:17:57.691Z,10.42
2018-03-04T00:18:57.915Z,10.52
2018-03-04T00:19:58.141Z,10.52
2018-03-04T00:20:58.375Z,10.52
2018-03-04T00:21:58.605Z,10.42
2018-03-04T00:22:58.840Z,10.42
2018-03-04T00:23:59.070Z,10.42
2018-03-04T00:24:59.298Z,10.52
2018-03-04T00:25:59.531Z,10.42
2018-03-04T00:26:59.762Z,10.42
2018-03-04T00:28:00.000Z,10.42
2018-03-04T00:29:00.232Z,10.52
2018-03-04T00:30:00.467Z,10.42
2018-03-04T00:31:00.686Z,10.52
2018-03-04T00:32:00.919Z,10.42
2018-03-04T00:33:01.150Z,10.33
2018-03-04T00:34:01.381Z,10.52
2018-03-04T00:35:01.620Z,10.42
2018-03-04T00:36:01.837Z,10.52
2018-03-04T00:37:02.066Z,10.52
2018-03-04T00:38:02.300Z,10.52
2018-03-04T00:39:02.541Z,10.52
2018-03-04T00:40:02.761Z,10.52
2018-03-04T00:41:02.994Z,10.52
2018-03-04T00:42:03.220Z,10.42
2018-03-04T00:43:03.451Z,10.42
2018-03-04T00:44:03.680Z,10.52
2018-03-04T00:45:03.908Z,10.52
2018-03-04T00:46:04.138Z,10.42
2018-03-04T00:47:04.367Z,10.42
2018-03-04T00:48:04.600Z,10.52
2018-03-04T00:49:04.831Z,10.42
2018-03-04T00:50:05.070Z,10.42
2018-03-04T00:51:05.300Z,10.42
2018-03-04T00:52:05.525Z,10.42
2018-03-04T00:53:05.759Z,10.52
2018-03-04T00:54:05.990Z,10.52
2018-03-04T00:55:06.237Z,10.42
2018-03-04T00:56:06.439Z,10.42
2018-03-04T00:57:06.672Z,10.52
2018-03-04T00:58:06.902Z,10.42
2018-03-04T00:59:07.132Z,10.42
2018-03-04T01:00:07.362Z,10.42
2018-03-04T01:01:07.600Z,10.52
2018-03-04T01:02:07.826Z,10.42
2018-03-04T01:03:08.062Z,10.52
2018-03-04T01:04:08.281Z,10.42
2018-03-04T01:05:08.511Z,10.52
2018-03-04T01:06:08.739Z,10.42
2018-03-04T01:07:08.970Z,10.42
2018-03-04T01:08:09.203Z,10.42
2018-03-04T01:09:09.434Z,10.42
2018-03-04T01:10:09.657Z,10.42
2018-03-04T01:11:09.888Z,10.42
2018-03-04T01:12:10.119Z,10.52
2018-03-04T01:13:10.349Z,10.52
2018-03-04T01:14:10.579Z,10.42
2018-03-04T01:15:10.804Z,10.52
2018-03-04T01:16:11.041Z,10.42
2018-03-04T01:17:11.271Z,10.33
2018-03-04T01:18:11.511Z,10.42
2018-03-04T01:19:11.738Z,10.52
2018-03-04T01:20:11.967Z,10.52
2018-03-04T01:21:12.201Z,10.42
2018-03-04T01:22:12.429Z,10.42
2018-03-04T01:23:12.666Z,10.42
2018-03-04T01:24:12.898Z,10.42
2018-03-04T01:25:13.125Z,10.52
2018-03-04T01:26:13.363Z,10.42
2018-03-04T01:27:13.592Z,10.42
2018-03-04T01:28:13.828Z,10.52
2018-03-04T01:29:14.059Z,10.42
2018-03-04T01:30:14.287Z,10.42
2018-03-04T01:31:14.516Z,10.42
2018-03-04T01:32:14.747Z,10.42
2018-03-04T01:33:14.986Z,10.42
2018-03-04T01:34:15.217Z,10.33
2018-03-04T01:35:15.445Z,10.42
2018-03-04T01:36:15.677Z,10.42
2018-03-04T01:37:15.907Z,10.42
2018-03-04T01:38:16.135Z,10.42
2018-03-04T01:39:16.366Z,10.42
2018-03-04T01:40:16.597Z,10.42
2018-03-04T01:41:16.822Z,10.42
2018-03-04T01:42:17.055Z,10.33
2018-03-04T01:43:17.285Z,10.42
2018-03-04T01:44:17.522Z,10.42
2018-03-04T01:45:17.751Z,10.42
2018-03-04T01:46:17.979Z,10.33
2018-03-04T01:47:18.212Z,10.52
2018-03-04T01:48:18.441Z,10.33
2018-03-04T01:49:18.680Z,10.42
2018-03-04T01:50:18.910Z,10.42
2018-03-04T01:51:19.146Z,10.42
2018-03-04T01:52:19.359Z,10.42
2018-03-04T01:53:19.592Z,10.42
2018-03-04T01:54:19.825Z,10.33
2018-03-04T01:55:20.055Z,10.42
2018-03-04T01:56:20.283Z,10.33
2018-03-04T01:57:20.511Z,10.52
2018-03-04T01:58:20.742Z,10.42
2018-03-04T01:59:20.973Z,10.42
2018-03-04T02:00:21.204Z,10.33
2018-03-04T02:01:21.433Z,10.33
2018-03-04T02:02:21.664Z,10.52
2018-03-04T02:03:21.893Z,10.42
2018-03-04T02:04:22.124Z,10.52
2018-03-04T02:05:22.357Z,10.52
2018-03-04T02:06:22.586Z,10.33
2018-03-04T02:07:22.815Z,10.33
2018-03-04T02:08:23.045Z,10.33
2018-03-04T02:09:23.275Z,10.33
2018-03-04T02:10:23.506Z,10.52
2018-03-04T02:11:23.736Z,10.42
2018-03-04T02:12:23.965Z,10.42
2018-03-04T02:13:24.195Z,10.52
2018-03-04T02:14:24.425Z,10.42
2018-03-04T02:15:24.656Z,10.33
2018-03-04T02:16:24.885Z,10.33
2018-03-04T02:17:25.120Z,10.42
2018-03-04T02:18:25.349Z,10.33
2018-03-04T02:19:25.582Z,10.52
2018-03-04T02:20:25.807Z,10.33
2018-03-04T02:21:26.037Z,10.33
2018-03-04T02:22:26.264Z,10.42
2018-03-04T02:23:26.495Z,10.33
2018-03-04T02:24:26.725Z,10.33
2018-03-04T02:25:26.953Z,10.33
2018-03-04T02:26:27.184Z,10.33
2018-03-04T02:27:27.412Z,10.52
2018-03-04T02:28:27.659Z,10.33
2018-03-04T02:29:27.881Z,10.52
2018-03-04T02:30:28.115Z,10.33
2018-03-04T02:31:28.348Z,10.52
2018-03-04T02:32:28.578Z,10.42
2018-03-04T02:33:28.814Z,10.52
2018-03-04T02:34:29.052Z,10.33
2018-03-04T02:35:29.272Z,10.62
2018-03-04T02:36:29.537Z,10.52
2018-03-04T02:37:29.722Z,10.52
2018-03-04T02:38:29.955Z,10.52
2018-03-04T02:39:30.196Z,10.42
2018-03-04T02:40:30.415Z,10.42
2018-03-04T02:41:30.643Z,10.42
2018-03-04T02:42:30.879Z,10.62
2018-03-04T02:43:31.102Z,10.33
2018-03-04T02:44:31.335Z,10.52
2018-03-04T02:45:31.566Z,10.52
2018-03-04T02:46:31.796Z,10.52
2018-03-04T02:47:32.019Z,10.62
2018-03-04T02:48:32.255Z,10.52
2018-03-04T02:49:32.484Z,10.52
2018-03-04T02:50:32.718Z,10.62
2018-03-04T02:51:32.950Z,10.62
2018-03-04T02:52:33.178Z,10.62
2018-03-04T02:53:33.415Z,10.62
2018-03-04T02:54:33.639Z,10.52
2018-03-04T02:55:33.877Z,10.62
2018-03-04T02:56:34.112Z,10.52
2018-03-04T02:57:34.337Z,10.62
2018-03-04T02:58:34.564Z,10.62
2018-03-04T02:59:34.790Z,10.52
2018-03-04T03:00:35.024Z,10.62
2018-03-04T03:01:35.255Z,10.52
2018-03-04T03:02:35.485Z,10.23
2018-03-04T03:03:35.722Z,10.62
2018-03-04T03:04:35.950Z,10.62
2018-03-04T03:05:36.182Z,10.52
2018-03-04T03:06:36.412Z,10.33
2018-03-04T03:07:36.644Z,10.33
2018-03-04T03:08:36.874Z,10.42
2018-03-04T03:09:37.102Z,10.33
2018-03-04T03:10:37.333Z,10.62
2018-03-04T03:11:37.571Z,10.33
2018-03-04T03:12:37.801Z,10.33
2018-03-04T03:13:38.032Z,10.23
2018-03-04T03:14:38.260Z,10.33
2018-03-04T03:15:38.488Z,10.23
2018-03-04T03:16:38.717Z,10.52
2018-03-04T03:17:38.947Z,10.33
2018-03-04T03:18:39.181Z,10.33
2018-03-04T03:19:39.409Z,10.33
2018-03-04T03:20:39.642Z,10.14
2018-03-04T03:21:39.869Z,10.33
2018-03-04T03:22:40.106Z,10.42
2018-03-04T03:23:40.337Z,10.23
2018-03-04T03:24:40.563Z,10.23
2018-03-04T03:25:40.797Z,10.33
2018-03-04T03:26:41.027Z,10.33
2018-03-04T03:27:41.265Z,10.23
2018-03-04T03:28:41.496Z,10.33
2018-03-04T03:29:41.724Z,10.23
2018-03-04T03:30:41.957Z,10.42
2018-03-04T03:31:42.187Z,10.23
2018-03-04T03:32:42.425Z,10.23
2018-03-04T03:33:42.657Z,10.42
2018-03-04T03:34:42.886Z,10.23
2018-03-04T03:35:43.116Z,10.23
2018-03-04T03:36:43.348Z,10.42
2018-03-04T03:37:43.586Z,10.33
2018-03-04T03:38:43.816Z,10.23
2018-03-04T03:39:44.046Z,10.23
2018-03-04T03:40:44.278Z,10.42
2018-03-04T03:41:44.508Z,10.42
2018-03-04T03:42:44.746Z,10.42
2018-03-04T03:43:44.977Z,10.42
2018-03-04T03:44:45.206Z,10.23
2018-03-04T03:45:45.429Z,10.42
2018-03-04T03:46:45.667Z,10.42
2018-03-04T03:47:45.897Z,10.42
2018-03-04T03:48:46.126Z,10.42
2018-03-04T03:49:46.356Z,10.33
2018-03-04T03:50:46.584Z,10.23
2018-03-04T03:51:46.816Z,10.33
2018-03-04T03:52:47.049Z,10.52
2018-03-04T03:53:47.269Z,10.42
2018-03-04T03:54:47.498Z,10.33
2018-03-04T03:55:47.732Z,10.42
2018-03-04T03:56:47.955Z,10.42
2018-03-04T03:57:48.186Z,10.42
2018-03-04T03:58:48.419Z,10.42
2018-03-04T03:59:48.654Z,10.42
2018-03-04T04:00:48.886Z,10.42
2018-03-04T04:01:49.112Z,10.52
2018-03-04T04:02:49.344Z,10.42
2018-03-04T04:03:49.580Z,10.42
2018-03-04T04:04:49.801Z,10.42
2018-03-04T04:05:50.029Z,10.42
2018-03-04T04:06:50.257Z,10.52
2018-03-04T04:07:50.485Z,10.42
2018-03-04T04:08:50.717Z,10.42
2018-03-04T04:09:50.947Z,10.42
2018-03-04T04:10:51.185Z,10.62
2018-03-04T04:11:51.416Z,10.42
2018-03-04T04:12:51.646Z,10.42
2018-03-04T04:13:51.887Z,10.42
2018-03-04T04:14:52.086Z,10.52
2018-03-04T04:15:52.316Z,10.62
2018-03-04T04:16:52.550Z,10.81
2018-03-04T04:17:52.777Z,10.33
2018-03-04T04:18:53.007Z,10.62
2018-03-04T04:19:53.232Z,10.62
2018-03-04T04:20:53.465Z,10.52
2018-03-04T04:21:53.696Z,10.72
2018-03-04T04:22:53.931Z,10.72
2018-03-04T04:23:54.162Z,10.72
2018-03-04T04:24:54.389Z,10.42
2018-03-04T04:25:54.622Z,10.42
2018-03-04T04:26:54.853Z,10.72
2018-03-04T04:27:55.095Z,10.23
2018-03-04T04:28:55.321Z,10.62
2018-03-04T04:29:55.549Z,10.42
2018-03-04T04:30:55.780Z,10.33
2018-03-04T04:31:56.011Z,10.72
2018-03-04T04:32:56.240Z,10.72
2018-03-04T04:33:56.469Z,10.62
2018-03-04T04:34:56.700Z,10.72
2018-03-04T04:35:56.930Z,10.72
2018-03-04T04:36:57.159Z,10.72
2018-03-04T04:37:57.393Z,10.72
2018-03-04T04:38:57.626Z,10.52
2018-03-04T04:39:57.855Z,10.72
2018-03-04T04:40:58.083Z,10.81
2018-03-04T04:41:58.316Z,10.62
2018-03-04T04:42:58.545Z,10.81
2018-03-04T04:43:58.784Z,10.72
2018-03-04T04:44:59.014Z,10.72
2018-03-04T04:45:59.245Z,10.91
2018-03-04T04:46:59.472Z,10.62
2018-03-04T04:47:59.704Z,10.81
2018-03-04T04:48:59.935Z,10.72
2018-03-04T04:50:00.165Z,10.91
2018-03-04T04:51:00.394Z,10.42
2018-03-04T04:52:00.623Z,10.52
2018-03-04T04:53:00.854Z,10.62
2018-03-04T04:54:01.084Z,10.62
2018-03-04T04:55:01.322Z,10.62
2018-03-04T04:56:01.549Z,10.72
2018-03-04T04:57:01.777Z,10.62
2018-03-04T04:58:02.002Z,10.72
2018-03-04T04:59:02.237Z,10.62
2018-03-04T05:00:02.536Z,10.72
2018-03-04T05:01:02.754Z,10.72
2018-03-04T05:02:02.982Z,10.62
2018-03-04T05:03:03.221Z,10.52
2018-03-04T05:04:03.450Z,11.00
2018-03-04T05:05:03.682Z,10.62
2018-03-04T05:06:03.905Z,10.62
2018-03-04T05:07:04.135Z,10.91
2018-03-04T05:08:04.365Z,10.81
2018-03-04T05:09:04.596Z,10.81
2018-03-04T05:10:04.825Z,10.72
2018-03-04T05:11:05.052Z,10.62
2018-03-04T05:12:05.282Z,10.62
2018-03-04T05:13:05.512Z,10.72
2018-03-04T05:14:05.759Z,10.23
2018-03-04T05:15:05.987Z,10.81
2018-03-04T05:16:06.215Z,10.72
2018-03-04T05:17:06.444Z,10.72
2018-03-04T05:18:06.673Z,10.62
2018-03-04T05:19:06.910Z,10.72
2018-03-04T05:20:07.141Z,10.62
2018-03-04T05:21:07.369Z,10.72
2018-03-04T05:22:07.601Z,11.00
2018-03-04T05:23:07.832Z,10.62
2018-03-04T05:24:08.069Z,11.00
2018-03-04T05:25:08.305Z,10.62
2018-03-04T05:26:08.532Z,11.00
2018-03-04T05:27:08.758Z,10.62
2018-03-04T05:28:08.987Z,10.23
2018-03-04T05:29:09.232Z,10.62
2018-03-04T05:30:09.445Z,10.81
2018-03-04T05:31:09.680Z,10.72
2018-03-04T05:32:09.908Z,10.72
2018-03-04T05:33:10.137Z,10.72
2018-03-04T05:34:10.366Z,10.52
2018-03-04T05:35:10.605Z,10.42
2018-03-04T05:36:10.836Z,10.33
2018-03-04T05:37:11.068Z,10.33
2018-03-04T05:38:11.289Z,10.42
2018-03-04T05:39:11.520Z,10.62
2018-03-04T05:40:11.750Z,10.23
2018-03-04T05:41:11.980Z,10.43
2018-03-04T05:42:12.209Z,10.42
2018-03-04T05:43:12.438Z,10.33
2018-03-04T05:44:12.670Z,10.42
2018-03-04T05:45:12.900Z,10.53
2018-03-04T05:46:13.138Z,10.42
2018-03-04T05:47:13.388Z,10.42
2018-03-04T05:48:13.610Z,10.42
2018-03-04T05:49:13.837Z,10.42
2018-03-04T05:50:14.068Z,10.33
2018-03-04T05:51:14.299Z,10.33
2018-03-04T05:52:14.528Z,10.42
2018-03-04T05:53:14.756Z,10.42
2018-03-04T05:54:14.981Z,10.42
2018-03-04T05:55:15.212Z,10.42
2018-03-04T05:56:15.444Z,10.42
2018-03-04T05:57:15.675Z,10.52
2018-03-04T05:58:15.906Z,10.43
2018-03-04T05:59:16.135Z,10.33
2018-03-04T06:00:16.370Z,10.42
2018-03-04T06:01:16.596Z,10.52
2018-03-04T06:02:16.831Z,10.42
2018-03-04T06:03:17.061Z,10.42
2018-03-04T06:04:17.292Z,10.33
2018-03-04T06:05:17.521Z,10.42
2018-03-04T06:06:17.754Z,10.42
2018-03-04T06:07:17.990Z,10.23
2018-03-04T06:08:18.225Z,10.33
2018-03-04T06:09:18.434Z,10.42
2018-03-04T06:10:18.663Z,10.42
2018-03-04T06:11:18.899Z,10.42
2018-03-04T06:12:19.140Z,10.42
2018-03-04T06:13:19.363Z,10.43
2018-03-04T06:14:19.630Z,10.42
2018-03-04T06:15:19.832Z,10.52
2018-03-04T06:16:20.062Z,10.62
2018-03-04T06:17:20.293Z,10.62
2018-03-04T06:18:20.525Z,10.43
2018-03-04T06:19:20.757Z,10.42
2018-03-04T06:20:20.986Z,10.42
2018-03-04T06:21:21.217Z,10.43
2018-03-04T06:22:21.450Z,10.72
2018-03-04T06:23:21.685Z,10.42
2018-03-04T06:24:21.915Z,10.33
2018-03-04T06:25:22.143Z,10.43
2018-03-04T06:26:22.377Z,10.42
2018-03-04T06:27:22.609Z,10.52
2018-03-04T06:28:22.846Z,10.72
2018-03-04T06:29:23.077Z,10.42
2018-03-04T06:30:23.305Z,10.42
2018-03-04T06:31:23.538Z,10.42
2018-03-04T06:32:23.757Z,10.43
2018-03-04T06:33:24.000Z,10.43
2018-03-04T06:34:24.218Z,10.72
2018-03-04T06:35:24.449Z,10.43
2018-03-04T06:36:24.676Z,10.43
2018-03-04T06:37:24.908Z,10.72
2018-03-04T06:38:25.143Z,10.72
2018-03-04T06:39:25.378Z,10.52
2018-03-04T06:40:25.610Z,10.23
2018-03-04T06:41:25.840Z,10.81
2018-03-04T06:42:26.070Z,10.72
2018-03-04T06:43:26.301Z,10.52
2018-03-04T06:44:26.540Z,10.53
2018-03-04T06:45:26.768Z,10.42
2018-03-04T06:46:27.461Z,10.81
2018-03-04T06:47:27.224Z,10.42
2018-03-04T06:48:27.456Z,10.42
2018-03-04T06:49:27.687Z,10.72
2018-03-04T06:50:27.921Z,10.72
2018-03-04T06:51:28.147Z,10.63
2018-03-04T06:52:28.373Z,10.72
2018-03-04T06:53:28.608Z,10.42
2018-03-04T06:54:28.841Z,10.72
2018-03-04T06:55:29.071Z,10.72
2018-03-04T06:56:29.298Z,10.72
2018-03-04T06:57:29.531Z,10.72
2018-03-04T06:58:29.747Z,10.72
2018-03-04T06:59:29.985Z,10.72
2018-03-04T07:00:30.216Z,10.72
2018-03-04T07:01:30.446Z,10.91
2018-03-04T07:02:30.679Z,10.72
2018-03-04T07:03:30.903Z,10.72
2018-03-04T07:04:31.125Z,10.72
2018-03-04T07:05:31.357Z,10.91
2018-03-04T07:06:31.588Z,10.63
2018-03-04T07:07:31.820Z,10.53
2018-03-04T07:08:32.046Z,10.63
2018-03-04T07:09:32.274Z,10.53
2018-03-04T07:10:32.539Z,10.63
2018-03-04T07:11:32.731Z,10.63
2018-03-04T07:12:32.962Z,11.01
2018-03-04T07:13:33.190Z,11.01
2018-03-04T07:14:33.422Z,10.72
2018-03-04T07:15:33.650Z,10.91
2018-03-04T07:16:33.888Z,10.72
2018-03-04T07:17:34.119Z,11.01
2018-03-04T07:18:34.348Z,10.72
2018-03-04T07:19:34.584Z,10.72
2018-03-04T07:20:34.809Z,10.52
2018-03-04T07:21:35.041Z,10.33
2018-03-04T07:22:35.271Z,10.63
2018-03-04T07:23:35.509Z,10.43
2018-03-04T07:24:35.740Z,10.82
2018-03-04T07:25:35.969Z,10.63
2018-03-04T07:26:36.200Z,10.72
2018-03-04T07:27:36.431Z,10.82
2018-03-04T07:28:36.671Z,10.72
2018-03-04T07:29:36.917Z,10.82
2018-03-04T07:30:37.129Z,10.82
2018-03-04T07:31:37.372Z,10.82
2018-03-04T07:32:37.602Z,10.82
2018-03-04T07:33:37.833Z,10.91
2018-03-04T07:34:38.063Z,10.91
2018-03-04T07:35:38.291Z,10.63
2018-03-04T07:36:38.525Z,11.11
2018-03-04T07:37:38.780Z,10.53
2018-03-04T07:38:39.014Z,10.63
2018-03-04T07:39:39.241Z,10.72
2018-03-04T07:40:39.475Z,10.91
2018-03-04T07:41:39.705Z,10.53
2018-03-04T07:42:39.943Z,10.63
2018-03-04T07:43:40.173Z,10.53
2018-03-04T07:44:40.402Z,10.72
2018-03-04T07:45:40.630Z,10.91
2018-03-04T07:46:40.860Z,10.82
2018-03-04T07:47:41.091Z,10.53
2018-03-04T07:48:41.325Z,10.91
2018-03-04T07:49:41.552Z,10.63
2018-03-04T07:50:41.780Z,10.91
2018-03-04T07:51:42.010Z,10.82
2018-03-04T07:52:42.241Z,10.91
2018-03-04T07:53:42.475Z,10.72
2018-03-04T07:54:42.706Z,10.91
2018-03-04T07:55:42.934Z,11.01
2018-03-04T07:56:43.167Z,10.53
2018-03-04T07:57:43.396Z,10.53
2018-03-04T07:58:43.634Z,10.53
2018-03-04T07:59:43.865Z,10.91
2018-03-04T08:00:44.093Z,10.82
2018-03-04T08:01:44.325Z,11.01
2018-03-04T08:02:44.553Z,10.91
2018-03-04T08:03:44.785Z,10.63
2018-03-04T08:04:45.016Z,10.91
2018-03-04T08:05:45.246Z,11.01
2018-03-04T08:06:45.469Z,10.72
2018-03-04T08:07:45.704Z,10.91
2018-03-04T08:08:45.932Z,11.01
2018-03-04T08:09:46.168Z,10.53
2018-03-04T08:10:46.399Z,10.53
2018-03-04T08:11:46.627Z,10.63
2018-03-04T08:12:46.859Z,10.91
2018-03-04T08:13:47.093Z,10.63
2018-03-04T08:14:47.328Z,10.82
2018-03-04T08:15:47.557Z,10.53
2018-03-04T08:16:47.787Z,10.63
2018-03-04T08:17:48.020Z,10.72
2018-03-04T08:18:48.250Z,10.63
2018-03-04T08:19:48.479Z,10.63
2018-03-04T08:20:48.734Z,10.82
2018-03-04T08:21:48.951Z,10.72
2018-03-04T08:22:49.187Z,10.91
2018-03-04T08:23:49.440Z,10.72
2018-03-04T08:24:49.653Z,10.72
2018-03-04T08:25:49.881Z,10.53
2018-03-04T08:26:50.110Z,10.82
2018-03-04T08:27:50.342Z,10.82
2018-03-04T08:28:50.574Z,10.63
2018-03-04T08:29:50.801Z,10.72
2018-03-04T08:30:51.042Z,10.63
2018-03-04T08:31:51.274Z,10.82
2018-03-04T08:32:51.507Z,10.63
2018-03-04T08:33:51.734Z,10.82
2018-03-04T08:34:51.972Z,10.72
2018-03-04T08:35:52.200Z,10.53
2018-03-04T08:36:52.431Z,10.72
2018-03-04T08:37:52.655Z,10.63
2018-03-04T08:38:52.885Z,10.72
2018-03-04T08:39:53.117Z,10.63
2018-03-04T08:40:53.346Z,10.53
2018-03-04T08:41:53.575Z,10.63
2018-03-04T08:42:53.803Z,10.72
2018-03-04T08:43:54.037Z,10.63
2018-03-04T08:44:54.264Z,10.63
2018-03-04T08:45:54.504Z,10.53
2018-03-04T08:46:54.734Z,10.63
2018-03-04T08:47:54.964Z,10.72
2018-03-04T08:48:55.196Z,10.63
2018-03-04T08:49:55.426Z,10.72
2018-03-04T08:50:55.653Z,10.53
2018-03-04T08:51:55.884Z,10.53
2018-03-04T08:52:56.117Z,10.53
2018-03-04T08:53:56.339Z,10.53
2018-03-04T08:54:56.571Z,10.72
2018-03-04T08:55:56.802Z,10.63
2018-03-04T08:56:57.038Z,10.63
2018-03-04T08:57:57.269Z,10.63
2018-03-04T08:58:57.496Z,10.53
2018-03-04T08:59:57.729Z,10.53
2018-03-04T09:00:57.961Z,10.53
2018-03-04T09:01:58.198Z,10.63
2018-03-04T09:02:58.427Z,10.63
2018-03-04T09:03:58.674Z,10.63
2018-03-04T09:04:58.884Z,10.63
2018-03-04T09:05:59.112Z,10.53
2018-03-04T09:06:59.342Z,10.63
2018-03-04T09:07:59.575Z,10.63
2018-03-04T09:08:59.803Z,10.72
2018-03-04T09:10:00.031Z,10.53
2018-03-04T09:11:00.261Z,10.53
2018-03-04T09:12:00.491Z,10.63
2018-03-04T09:13:00.730Z,10.63
2018-03-04T09:14:00.963Z,10.63
2018-03-04T09:15:01.231Z,10.53
2018-03-04T09:16:01.423Z,10.72
2018-03-04T09:17:01.652Z,10.63
2018-03-04T09:18:01.946Z,10.72
2018-03-04T09:19:02.122Z,10.63
2018-03-04T09:20:02.352Z,10.72
2018-03-04T09:21:02.583Z,10.63
2018-03-04T09:22:02.816Z,10.72
2018-03-04T09:23:03.052Z,10.72
2018-03-04T09:24:03.283Z,10.63
2018-03-04T09:25:03.511Z,10.72
2018-03-04T09:26:03.741Z,10.72
2018-03-04T09:27:03.972Z,10.63
2018-03-04T09:28:04.202Z,10.72
2018-03-04T09:29:04.432Z,10.53
2018-03-04T09:30:04.714Z,10.63
2018-03-04T09:31:04.887Z,10.63
2018-03-04T09:32:05.120Z,11.01
2018-03-04T09:33:05.375Z,10.53
2018-03-04T09:34:05.637Z,10.82
2018-03-04T09:35:05.821Z,10.72
2018-03-04T09:36:06.051Z,10.82
2018-03-04T09:37:06.280Z,10.82
2018-03-04T09:38:06.509Z,10.82
2018-03-04T09:39:06.747Z,10.82
2018-03-04T09:40:06.987Z,10.72
2018-03-04T09:41:07.207Z,10.82
2018-03-04T09:42:07.438Z,10.82
2018-03-04T09:43:07.670Z,10.72
2018-03-04T09:44:07.908Z,10.53
2018-03-04T09:45:08.139Z,10.72
2018-03-04T09:46:08.366Z,10.82
2018-03-04T09:47:08.598Z,10.82
2018-03-04T09:48:08.830Z,10.82
2018-03-04T09:49:09.072Z,10.82
2018-03-04T09:50:09.297Z,10.91
2018-03-04T09:51:09.526Z,10.82
2018-03-04T09:52:09.755Z,10.82
2018-03-04T09:53:09.980Z,10.82
2018-03-04T09:54:10.212Z,10.82
2018-03-04T09:55:10.440Z,10.91
2018-03-04T09:56:10.671Z,10.53
2018-03-04T09:57:10.899Z,10.82
2018-03-04T09:58:11.128Z,10.82
2018-03-04T09:59:11.361Z,10.82
2018-03-04T10:00:11.591Z,10.91
2018-03-04T10:01:11.821Z,11.01
2018-03-04T10:02:12.077Z,10.91
2018-03-04T10:03:12.275Z,10.91
2018-03-04T10:04:12.504Z,10.82
2018-03-04T10:05:12.737Z,10.91
2018-03-04T10:06:12.974Z,10.82
2018-03-04T10:07:13.220Z,10.82
2018-03-04T10:08:13.444Z,10.63
2018-03-04T10:09:13.669Z,10.91
2018-03-04T10:10:13.900Z,11.01
2018-03-04T10:11:14.135Z,10.82
2018-03-04T10:12:14.365Z,10.63
2018-03-04T10:13:14.593Z,10.72
2018-03-04T10:14:14.825Z,10.63
2018-03-04T10:15:15.057Z,10.91
2018-03-04T10:16:15.294Z,11.11
2018-03-04T10:17:15.524Z,10.63
2018-03-04T10:18:15.754Z,10.72
2018-03-04T10:19:15.986Z,11.01
2018-03-04T10:20:16.216Z,10.72
2018-03-04T10:21:16.456Z,11.21
2018-03-04T10:22:16.683Z,10.72
2018-03-04T10:23:16.914Z,10.82
2018-03-04T10:24:17.142Z,11.01
2018-03-04T10:25:17.368Z,10.91
2018-03-04T10:26:17.598Z,10.82
2018-03-04T10:27:17.828Z,10.82
2018-03-04T10:28:18.058Z,11.01
2018-03-04T10:29:18.288Z,11.01
2018-03-04T10:30:18.520Z,10.91
2018-03-04T10:31:18.750Z,10.82
2018-03-04T10:32:18.987Z,10.91
2018-03-04T10:33:19.268Z,11.01
2018-03-04T10:34:19.448Z,11.01
2018-03-04T10:35:19.674Z,10.82
2018-03-04T10:36:19.917Z,11.01
2018-03-04T10:37:20.131Z,11.11
2018-03-04T10:38:20.368Z,11.01
2018-03-04T10:39:20.598Z,10.91
2018-03-04T10:40:20.829Z,11.11
2018-03-04T10:41:21.051Z,11.11
2018-03-04T10:42:21.281Z,11.11
2018-03-04T10:43:21.509Z,10.91
2018-03-04T10:44:21.739Z,11.11
2018-03-04T10:45:22.001Z,11.01
2018-03-04T10:46:22.196Z,10.91
2018-03-04T10:47:22.432Z,11.01
2018-03-04T10:48:22.659Z,11.01
2018-03-04T10:49:22.895Z,11.01
2018-03-04T10:50:23.124Z,10.91
2018-03-04T10:51:23.353Z,10.91
2018-03-04T10:52:23.586Z,10.91
2018-03-04T10:53:23.816Z,10.91
2018-03-04T10:54:24.055Z,11.01
2018-03-04T10:55:24.285Z,11.01
2018-03-04T10:56:24.517Z,11.01
2018-03-04T10:57:24.746Z,11.01
2018-03-04T10:58:24.977Z,11.11
2018-03-04T10:59:25.214Z,10.91
2018-03-04T11:00:25.445Z,11.01
2018-03-04T11:01:25.680Z,11.01
2018-03-04T11:02:25.903Z,11.01
2018-03-04T11:03:26.132Z,11.01
2018-03-04T11:04:26.362Z,11.11
2018-03-04T11:05:26.591Z,11.01
2018-03-04T11:06:26.822Z,11.01
2018-03-04T11:07:27.065Z,11.11
2018-03-04T11:08:27.275Z,11.11
2018-03-04T11:09:27.506Z,11.11
2018-03-04T11:10:27.734Z,11.11
2018-03-04T11:11:27.967Z,11.11
2018-03-04T11:12:28.201Z,11.11
2018-03-04T11:13:28.422Z,11.21
2018-03-04T11:14:28.656Z,10.72
2018-03-04T11:15:28.887Z,11.11
2018-03-04T11:16:29.124Z,11.01
2018-03-04T11:17:29.355Z,10.91
2018-03-04T11:18:29.585Z,10.91
2018-03-04T11:19:29.797Z,10.91
2018-03-04T11:20:30.074Z,10.91
2018-03-04T11:21:30.270Z,11.01
2018-03-04T11:22:30.499Z,11.11
2018-03-04T11:23:30.730Z,11.11
2018-03-04T11:24:30.955Z,11.21
2018-03-04T11:25:31.189Z,11.21
2018-03-04T11:26:31.419Z,11.01
2018-03-04T11:27:31.654Z,10.72
2018-03-04T11:28:31.932Z,11.01
2018-03-04T11:29:32.112Z,11.01
2018-03-04T11:30:32.339Z,10.72
2018-03-04T11:31:32.570Z,11.01
2018-03-04T11:32:32.801Z,11.30
2018-03-04T11:33:33.031Z,11.21
2018-03-04T11:34:33.264Z,11.11
2018-03-04T11:35:33.487Z,11.01
2018-03-04T11:36:33.722Z,11.11
2018-03-04T11:37:33.963Z,11.21
2018-03-04T11:38:34.188Z,11.21
2018-03-04T11:39:34.419Z,11.21
2018-03-04T11:40:34.650Z,11.11
2018-03-04T11:41:34.875Z,11.11
2018-03-04T11:42:35.104Z,11.21
2018-03-04T11:43:35.334Z,11.40
2018-03-04T11:44:35.568Z,11.30
2018-03-04T11:45:35.794Z,11.40
2018-03-04T11:46:36.022Z,10.91
2018-03-04T11:47:36.256Z,11.21
2018-03-04T11:48:36.490Z,10.82
2018-03-04T11:49:36.722Z,10.72
2018-03-04T11:50:36.948Z,11.30
2018-03-04T11:51:37.182Z,11.01
2018-03-04T11:52:37.413Z,10.72
2018-03-04T11:53:37.646Z,11.21
2018-03-04T11:54:37.879Z,10.91
2018-03-04T11:55:38.108Z,11.21
2018-03-04T11:56:38.338Z,10.82
2018-03-04T11:57:38.567Z,11.11
2018-03-04T11:58:38.794Z,10.72
2018-03-04T11:59:39.015Z,11.11
2018-03-04T12:00:39.251Z,11.11
2018-03-04T12:01:39.483Z,10.91
2018-03-04T12:02:39.715Z,11.21
2018-03-04T12:03:39.952Z,10.72
2018-03-04T12:04:40.170Z,11.11
2018-03-04T12:05:40.400Z,11.11
2018-03-04T12:06:40.629Z,11.11
2018-03-04T12:07:40.860Z,11.01
2018-03-04T12:08:41.088Z,11.21
2018-03-04T12:09:41.397Z,10.91
2018-03-04T12:10:41.550Z,11.21
2018-03-04T12:11:41.784Z,11.11
2018-03-04T12:12:42.015Z,10.82
2018-03-04T12:13:42.245Z,11.21
2018-03-04T12:14:42.499Z,11.11
2018-03-04T12:15:42.709Z,11.01
2018-03-04T12:16:42.945Z,11.11
2018-03-04T12:17:43.175Z,10.91
2018-03-04T12:18:43.405Z,11.21
2018-03-04T12:19:43.637Z,11.49
2018-03-04T12:20:43.868Z,11.11
2018-03-04T12:21:44.106Z,11.21
2018-03-04T12:22:44.337Z,11.21
2018-03-04T12:23:44.569Z,11.11
2018-03-04T12:24:44.796Z,11.11
2018-03-04T12:25:45.027Z,11.11
2018-03-04T12:26:45.274Z,11.11
2018-03-04T12:27:45.497Z,11.21
2018-03-04T12:28:45.727Z,11.21
2018-03-04T12:29:45.958Z,11.01
2018-03-04T12:30:46.188Z,11.21
2018-03-04T12:31:46.428Z,11.21
2018-03-04T12:32:46.655Z,11.11
2018-03-04T12:33:46.888Z,11.21
2018-03-04T12:34:47.115Z,11.11
2018-03-04T12:35:47.329Z,11.21
2018-03-04T12:36:47.560Z,11.11
2018-03-04T12:37:47.790Z,11.21
2018-03-04T12:38:48.021Z,11.01
2018-03-04T12:39:48.250Z,11.21
2018-03-04T12:40:48.476Z,11.21
2018-03-04T12:41:48.709Z,11.11
2018-03-04T12:42:48.940Z,11.21
2018-03-04T12:43:49.175Z,11.01
2018-03-04T12:44:49.411Z,11.11
2018-03-04T12:45:49.632Z,11.11
2018-03-04T12:46:49.862Z,11.11
2018-03-04T12:47:50.098Z,11.11
2018-03-04T12:48:50.321Z,11.21
2018-03-04T12:49:50.553Z,11.21
2018-03-04T12:50:50.782Z,11.11
2018-03-04T12:51:51.008Z,11.11
2018-03-04T12:52:51.243Z,11.11
2018-03-04T12:53:51.474Z,11.21
2018-03-04T12:54:51.705Z,11.21
2018-03-04T12:55:51.936Z,11.30